»·PEaware :: N5GL KRNO-KSAC

N5GL :: KRNO-KSAC

FLIGHT INFORMATION

Flight Status: Arrived
Operator: Privately registered:
United States
More flights under this callsign
Pilot: Georg L. (13308)
Aircraft: SOCATA TBM-900
(TBM9)
More flights by this aircraft type
Origin: KRNO Reno/Tahoe Intl
United States
Destination: KSAC Sacramento Executive
United States
More flights between these airports :: More routes between these airports
Route: +RENO9 SWR V6 FOLLY
File this flight plan on PilotEdge
Remarks:
Altitude:
(Current/Filed)
18,000ft
Speed:
(Current/Filed)
297kts
Departed: 21-Sep-20 12:16 PM
Arrived: 21-Sep-20 12:43 PM
Distance/Time
Traveled:
100nm/0:27
Distance/Time
To Go:
Arrived

Flight Plot

Page will automatically refresh every two minutes.

Flight plan parsing failed; only flown route is shown


Map Options




Map Legend


Flown Route
Filed Route
Departure Airport
Arrival Airport
Navaid (VOR, NDB)
Fix

Horizontal Profiles

Position Reports

Time Latitude Longitude Heading Altitude Ground
Speed
21-Sep-20 11:59 39.500458 -119.764954 267 4404ft 0kts
21-Sep-20 12:00 39.500458 -119.764954 267 4404ft 0kts
21-Sep-20 12:01 39.500458 -119.764954 267 4404ft 0kts
21-Sep-20 12:02 39.500458 -119.764954 267 4404ft 0kts
21-Sep-20 12:03 39.500458 -119.764954 267 4404ft 0kts
21-Sep-20 12:04 39.500458 -119.764954 267 4404ft 0kts
21-Sep-20 12:05 39.500458 -119.764954 267 4404ft 0kts
21-Sep-20 12:06 39.500458 -119.764954 267 4404ft 0kts
21-Sep-20 12:06 39.500458 -119.764954 267 4404ft 0kts
21-Sep-20 12:08 39.500458 -119.764954 267 4404ft 0kts
21-Sep-20 12:09 39.500458 -119.764954 267 4404ft 0kts
21-Sep-20 12:09 39.500458 -119.764954 267 4404ft 0kts
21-Sep-20 12:10 39.500458 -119.764954 267 4404ft 0kts
21-Sep-20 12:12 39.501699 -119.765728 0 4405ft 17kts
21-Sep-20 12:12 39.507020 -119.765725 359 4409ft 23kts
21-Sep-20 12:13 39.511411 -119.765175 0 4413ft 16kts
21-Sep-20 12:14 39.513722 -119.765696 271 4416ft 0kts
21-Sep-20 12:15 39.512374 -119.766754 181 4415ft 43kts
21-Sep-20 12:16 39.478550 -119.766664 177 6078ft 147kts
21-Sep-20 12:17 39.438631 -119.764204 176 8932ft 146kts
21-Sep-20 12:18 39.391069 -119.761312 178 10089ft 220kts
21-Sep-20 12:19 39.359638 -119.820850 245 12017ft 212kts
21-Sep-20 12:20 39.333602 -119.889385 240 14190ft 204kts
21-Sep-20 12:21 39.307384 -119.954702 240 16051ft 209kts
21-Sep-20 12:22 39.280408 -120.021827 240 17905ft 213kts
21-Sep-20 12:23 39.249835 -120.097671 240 18118ft 258kts
21-Sep-20 12:24 39.215606 -120.182451 240 18109ft 270kts
21-Sep-20 12:25 39.180456 -120.268903 237 18106ft 273kts
21-Sep-20 12:26 39.136072 -120.348071 233 18107ft 272kts
21-Sep-20 12:27 39.091292 -120.427287 233 17877ft 280kts
21-Sep-20 12:28 39.043980 -120.510762 233 16364ft 292kts
21-Sep-20 12:29 38.995901 -120.595388 233 14802ft 294kts
21-Sep-20 12:30 38.947723 -120.679951 232 12982ft 293kts
21-Sep-20 12:31 38.900054 -120.763397 232 11186ft 291kts
21-Sep-20 12:32 38.852560 -120.846331 232 9761ft 282kts
21-Sep-20 12:33 38.806409 -120.926720 232 8540ft 277kts
21-Sep-20 12:34 38.766000 -121.009129 243 7333ft 274kts
21-Sep-20 12:35 38.733901 -121.097675 243 6315ft 271kts
21-Sep-20 12:36 38.702487 -121.184589 243 5491ft 272kts
21-Sep-20 12:37 38.671099 -121.267908 236 3505ft 247kts
21-Sep-20 12:38 38.628185 -121.334024 232 1760ft 230kts
21-Sep-20 12:39 38.590710 -121.397548 236 1317ft 227kts
21-Sep-20 12:40 38.555659 -121.459059 227 700ft 184kts
21-Sep-20 12:41 38.521185 -121.487501 214 156ft 93kts
21-Sep-20 12:42 38.513594 -121.496029 270 23ft 8kts
21-Sep-20 12:43 38.513116 -121.497174 213 23ft 0kts
21-Sep-20 12:44 38.513116 -121.497174 213 23ft 0kts
21-Sep-20 12:45 38.513116 -121.497174 213 23ft 0kts
21-Sep-20 12:46 38.513116 -121.497174 213 23ft 0kts
21-Sep-20 12:47 38.513116 -121.497174 213 23ft 0kts
21-Sep-20 12:48 38.513116 -121.497174 213 23ft 0kts

Navigation Log

Ident Type
Flight plan parsing failed, navigation log unavailable